createdAt,value
2018-12-02T00:00:36.511Z,9.60
2018-12-02T00:03:05.270Z,9.61
2018-12-02T00:05:34.602Z,9.62
2018-12-02T00:08:08.865Z,9.66
2018-12-02T00:10:38.016Z,9.73
2018-12-02T00:13:07.354Z,9.81
2018-12-02T00:15:36.550Z,9.81
2018-12-02T00:18:05.935Z,9.75
2018-12-02T00:20:35.472Z,9.76
2018-12-02T00:23:04.483Z,9.79
2018-12-02T00:25:33.741Z,9.84
2018-12-02T00:28:03.549Z,9.85
2018-12-02T00:30:32.428Z,9.86
2018-12-02T00:33:01.707Z,9.94
2018-12-02T00:35:30.617Z,9.99
2018-12-02T00:38:00.024Z,10.02
2018-12-02T00:40:29.588Z,10.03
2018-12-02T00:42:58.499Z,10.00
2018-12-02T00:45:27.437Z,10.02
2018-12-02T00:47:56.683Z,10.05
2018-12-02T00:50:25.620Z,10.08
2018-12-02T00:52:54.877Z,10.15
2018-12-02T00:55:23.794Z,10.16
2018-12-02T00:57:52.991Z,10.15
2018-12-02T01:00:22.397Z,10.13
2018-12-02T01:02:51.436Z,10.10
2018-12-02T01:05:21.618Z,10.09
2018-12-02T01:07:50.303Z,10.10
2018-12-02T01:10:19.042Z,10.13
2018-12-02T01:12:48.477Z,10.19
2018-12-02T01:15:17.604Z,10.24
2018-12-02T01:17:46.525Z,10.24
2018-12-02T01:20:15.797Z,10.17
2018-12-02T01:22:45.005Z,10.16
2018-12-02T01:25:13.756Z,10.17
2018-12-02T01:27:42.781Z,10.15
2018-12-02T01:30:11.715Z,10.17
2018-12-02T01:32:40.404Z,10.18
2018-12-02T01:35:09.065Z,10.21
2018-12-02T01:37:38.691Z,10.21
2018-12-02T01:40:07.432Z,10.20
2018-12-02T01:42:36.967Z,10.28
2018-12-02T01:45:05.975Z,10.27
2018-12-02T01:47:35.506Z,10.29
2018-12-02T01:50:04.205Z,10.32
2018-12-02T01:52:33.900Z,10.34
2018-12-02T01:55:03.275Z,10.41
2018-12-02T01:57:32.771Z,10.43
2018-12-02T02:00:02.036Z,10.43
2018-12-02T02:02:31.691Z,10.43
2018-12-02T02:05:00.946Z,10.45
2018-12-02T02:07:30.492Z,10.45
2018-12-02T02:09:59.759Z,10.50
2018-12-02T02:12:29.299Z,10.51
2018-12-02T02:14:58.871Z,10.53
2018-12-02T02:17:28.143Z,10.55
2018-12-02T02:19:57.595Z,10.55
2018-12-02T02:22:26.860Z,10.57
2018-12-02T02:24:56.621Z,10.62
2018-12-02T02:27:25.881Z,10.63
2018-12-02T02:29:55.134Z,10.67
2018-12-02T02:32:24.681Z,10.63
2018-12-02T02:34:54.124Z,10.63
2018-12-02T02:37:23.680Z,10.67
2018-12-02T02:39:52.629Z,10.70
2018-12-02T02:42:22.030Z,10.73
2018-12-02T02:44:50.948Z,10.76
2018-12-02T02:47:20.223Z,10.76
2018-12-02T02:49:49.724Z,10.77
2018-12-02T02:52:18.979Z,10.74
2018-12-02T02:54:48.711Z,10.71
2018-12-02T02:57:17.988Z,10.76
2018-12-02T02:59:47.236Z,10.83
2018-12-02T03:02:16.715Z,10.88
2018-12-02T03:04:45.966Z,10.87
2018-12-02T03:07:15.252Z,10.91
2018-12-02T03:09:44.675Z,10.89
2018-12-02T03:12:13.951Z,10.88
2018-12-02T03:14:43.418Z,10.87
2018-12-02T03:17:12.626Z,10.90
2018-12-02T03:19:41.963Z,10.92
2018-12-02T03:22:10.895Z,10.94
2018-12-02T03:24:40.155Z,10.92
2018-12-02T03:27:09.423Z,10.92
2018-12-02T03:29:38.895Z,10.89
2018-12-02T03:32:08.161Z,10.88
2018-12-02T03:34:37.702Z,10.91
2018-12-02T03:37:06.963Z,10.91
2018-12-02T03:39:36.221Z,10.91
2018-12-02T03:42:04.920Z,10.91
2018-12-02T03:44:34.176Z,10.95
2018-12-02T03:47:03.754Z,10.99
2018-12-02T03:49:33.293Z,11.00
2018-12-02T03:52:02.815Z,11.01
2018-12-02T03:54:32.073Z,11.04
2018-12-02T03:57:01.492Z,11.07
2018-12-02T03:59:31.037Z,11.07
2018-12-02T04:02:00.309Z,11.05
2018-12-02T04:04:29.296Z,11.07
2018-12-02T04:06:58.842Z,11.09
2018-12-02T04:09:27.876Z,11.11
2018-12-02T04:11:57.152Z,11.10
2018-12-02T04:14:26.408Z,11.08
2018-12-02T04:16:55.541Z,11.07
2018-12-02T04:19:24.516Z,11.10
2018-12-02T04:21:54.055Z,11.10
2018-12-02T04:24:23.596Z,11.07
2018-12-02T04:26:53.004Z,11.09
2018-12-02T04:29:22.444Z,11.12
2018-12-02T04:31:52.839Z,11.14
2018-12-02T04:34:22.408Z,11.14
2018-12-02T04:36:51.972Z,11.13
2018-12-02T04:39:22.309Z,11.11
2018-12-02T04:41:51.577Z,11.10
2018-12-02T04:44:22.363Z,11.10
2018-12-02T04:46:52.098Z,11.04
2018-12-02T04:49:22.313Z,11.01
2018-12-02T04:51:51.614Z,10.96
2018-12-02T04:54:22.757Z,10.98
2018-12-02T04:56:52.507Z,10.98
2018-12-02T04:59:22.888Z,10.99
2018-12-02T05:01:52.959Z,10.97
2018-12-02T05:04:22.069Z,10.97
2018-12-02T05:06:51.327Z,10.95
2018-12-02T05:09:20.766Z,10.95
2018-12-02T05:11:50.231Z,10.97
2018-12-02T05:14:19.492Z,10.99
2018-12-02T05:16:49.039Z,11.01
2018-12-02T05:19:18.291Z,10.99
2018-12-02T05:21:48.033Z,11.00
2018-12-02T05:24:17.267Z,10.94
2018-12-02T05:26:46.542Z,10.96
2018-12-02T05:29:16.075Z,10.94
2018-12-02T05:31:45.323Z,10.95
2018-12-02T05:34:14.585Z,10.92
2018-12-02T05:36:43.851Z,10.87
2018-12-02T05:39:13.195Z,10.84
2018-12-02T05:41:42.219Z,10.83
2018-12-02T05:44:11.468Z,10.80
2018-12-02T05:46:40.390Z,10.72
2018-12-02T05:49:09.651Z,10.68
2018-12-02T05:51:39.178Z,10.60
2018-12-02T05:54:08.449Z,10.57
2018-12-02T05:56:37.700Z,10.50
2018-12-02T05:59:06.886Z,10.41
2018-12-02T06:01:36.443Z,10.46
2018-12-02T06:04:05.375Z,10.48
2018-12-02T06:06:35.196Z,10.48
2018-12-02T06:09:03.665Z,10.52
2018-12-02T06:11:32.641Z,10.50
2018-12-02T06:14:02.301Z,10.49
2018-12-02T06:16:31.647Z,10.50
2018-12-02T06:19:01.160Z,10.46
2018-12-02T06:21:30.664Z,10.41
2018-12-02T06:24:00.232Z,10.34
2018-12-02T06:26:30.185Z,10.36
2018-12-02T06:28:59.621Z,10.39
2018-12-02T06:31:29.164Z,10.43
2018-12-02T06:33:58.436Z,10.44
2018-12-02T06:36:27.971Z,10.42
2018-12-02T06:38:57.312Z,10.44
2018-12-02T06:41:26.222Z,10.44
2018-12-02T06:43:55.499Z,10.46
2018-12-02T06:46:24.751Z,10.41
2018-12-02T06:48:53.898Z,10.33
2018-12-02T06:51:23.426Z,10.27
2018-12-02T06:53:52.689Z,10.19
2018-12-02T06:56:22.752Z,10.16
2018-12-02T06:58:52.047Z,10.17
2018-12-02T07:01:22.448Z,10.20
2018-12-02T07:03:51.412Z,10.20
2018-12-02T07:06:21.220Z,10.18
2018-12-02T07:08:50.482Z,10.16
2018-12-02T07:11:19.732Z,10.16
2018-12-02T07:13:49.327Z,10.15
2018-12-02T07:16:18.578Z,10.14
2018-12-02T07:18:48.155Z,10.19
2018-12-02T07:21:17.127Z,10.20
2018-12-02T07:23:47.800Z,10.21
2018-12-02T07:26:17.380Z,10.23
2018-12-02T07:28:46.648Z,10.22
2018-12-02T07:31:15.896Z,10.22
2018-12-02T07:33:45.166Z,10.24
2018-12-02T07:36:30.763Z,10.27
2018-12-02T07:39:17.540Z,10.27
2018-12-02T07:41:46.781Z,10.22
2018-12-02T07:44:16.917Z,10.15
2018-12-02T07:46:46.448Z,10.16
2018-12-02T07:49:15.719Z,10.17
2018-12-02T07:51:44.977Z,10.17
2018-12-02T07:54:14.545Z,10.15
2018-12-02T07:56:43.796Z,10.16
2018-12-02T07:59:13.380Z,10.14
2018-12-02T08:01:42.631Z,10.15
2018-12-02T08:04:11.892Z,10.19
2018-12-02T08:06:41.380Z,10.19
2018-12-02T08:09:10.640Z,10.17
2018-12-02T08:11:39.899Z,10.17
2018-12-02T08:14:09.440Z,10.19
2018-12-02T08:16:39.572Z,10.16
2018-12-02T08:19:08.836Z,10.13
2018-12-02T08:21:38.579Z,10.10
2018-12-02T08:24:07.819Z,10.13
2018-12-02T08:26:37.361Z,10.18
2018-12-02T08:29:06.877Z,10.20
2018-12-02T08:31:37.355Z,10.25
2018-12-02T08:34:06.587Z,10.27
2018-12-02T08:36:35.724Z,10.33
2018-12-02T08:39:04.415Z,10.35
2018-12-02T08:41:37.748Z,10.36
2018-12-02T08:44:06.721Z,10.38
2018-12-02T08:46:35.665Z,10.40
2018-12-02T08:49:04.576Z,10.42
2018-12-02T08:51:33.572Z,10.44
2018-12-02T08:54:03.124Z,10.46
2018-12-02T08:56:32.768Z,10.44
2018-12-02T08:59:02.792Z,10.44
2018-12-02T09:01:32.158Z,10.43
2018-12-02T09:04:01.875Z,10.42
2018-12-02T09:06:31.140Z,10.46
2018-12-02T09:09:00.700Z,10.49
2018-12-02T09:11:30.096Z,10.50
2018-12-02T09:13:59.958Z,10.51
2018-12-02T09:16:29.540Z,10.49
2018-12-02T09:18:58.841Z,10.50
2018-12-02T09:21:28.730Z,10.47
2018-12-02T09:23:57.996Z,10.54
2018-12-02T09:26:27.269Z,10.54
2018-12-02T09:28:56.612Z,10.55
2018-12-02T09:31:26.171Z,10.52
2018-12-02T09:33:55.726Z,10.50
2018-12-02T09:36:25.018Z,10.51
2018-12-02T09:38:54.343Z,10.54
2018-12-02T09:41:24.155Z,10.56
2018-12-02T09:43:53.620Z,10.57
2018-12-02T09:46:23.087Z,10.59
2018-12-02T09:48:52.606Z,10.60
2018-12-02T09:51:23.099Z,10.61
2018-12-02T09:53:51.991Z,10.62
2018-12-02T09:56:23.385Z,10.60
2018-12-02T09:58:52.383Z,10.60
2018-12-02T10:01:23.879Z,10.61
2018-12-02T10:03:53.527Z,10.60
2018-12-02T10:06:23.039Z,10.61
2018-12-02T10:08:51.980Z,10.63
2018-12-02T10:11:20.904Z,10.65
2018-12-02T10:13:50.171Z,10.67
2018-12-02T10:16:19.632Z,10.70
2018-12-02T10:18:48.895Z,10.74
2018-12-02T10:21:18.172Z,10.76
2018-12-02T10:23:47.711Z,10.77
2018-12-02T10:26:17.159Z,10.77
2018-12-02T10:28:46.763Z,10.76
2018-12-02T10:31:16.027Z,10.80
2018-12-02T10:33:45.347Z,10.80
2018-12-02T10:36:14.935Z,10.79
2018-12-02T10:38:44.197Z,10.79
2018-12-02T10:41:14.656Z,10.80
2018-12-02T10:43:43.932Z,10.78
2018-12-02T10:46:13.452Z,10.78
2018-12-02T10:48:42.140Z,10.78
2018-12-02T10:51:11.417Z,10.77
2018-12-02T10:53:40.948Z,10.81
2018-12-02T10:56:09.994Z,10.83
2018-12-02T10:58:39.138Z,10.80
2018-12-02T11:01:07.863Z,10.80
2018-12-02T11:03:37.062Z,10.82
2018-12-02T11:06:06.011Z,10.85
2018-12-02T11:08:35.278Z,10.91
2018-12-02T11:11:04.255Z,10.97
2018-12-02T11:13:33.799Z,11.01
2018-12-02T11:16:02.796Z,11.04
2018-12-02T11:18:32.340Z,11.08
2018-12-02T11:21:01.612Z,11.10
2018-12-02T11:23:31.118Z,11.11
2018-12-02T11:26:00.855Z,11.10
2018-12-02T11:28:30.799Z,11.10
2018-12-02T11:31:00.059Z,11.15
2018-12-02T11:33:29.330Z,11.18
2018-12-02T11:35:58.536Z,11.21
2018-12-02T11:38:28.096Z,11.22
2018-12-02T11:40:58.268Z,11.25
2018-12-02T11:43:27.857Z,11.26
2018-12-02T11:45:57.107Z,11.27
2018-12-02T11:48:26.643Z,11.31
2018-12-02T11:50:56.077Z,11.35
2018-12-02T11:53:25.524Z,11.40
2018-12-02T11:55:54.804Z,11.40
2018-12-02T11:58:24.310Z,11.41
2018-12-02T12:00:53.876Z,11.42
2018-12-02T12:03:23.323Z,11.47
2018-12-02T12:05:52.164Z,11.51
2018-12-02T12:08:20.807Z,11.56
2018-12-02T12:10:50.258Z,11.60
2018-12-02T12:13:19.517Z,11.65
2018-12-02T12:15:48.511Z,11.71
2018-12-02T12:18:18.050Z,11.77
2018-12-02T12:20:47.326Z,11.82
2018-12-02T12:23:16.700Z,11.87
2018-12-02T12:25:45.705Z,11.90
2018-12-02T12:28:15.046Z,11.94
2018-12-02T12:30:44.031Z,11.91
2018-12-02T12:33:13.625Z,11.92
2018-12-02T12:35:43.197Z,11.94
2018-12-02T12:38:12.448Z,11.95
2018-12-02T12:40:41.693Z,11.95
2018-12-02T12:43:10.851Z,11.98
2018-12-02T12:45:40.375Z,12.00
2018-12-02T12:48:09.649Z,12.01
2018-12-02T12:50:38.900Z,12.01
2018-12-02T12:53:08.156Z,12.00
2018-12-02T12:55:37.427Z,12.06
2018-12-02T12:58:06.394Z,12.10
2018-12-02T13:00:35.914Z,12.11
2018-12-02T13:03:04.771Z,12.13
2018-12-02T13:05:34.331Z,12.17
2018-12-02T13:08:03.592Z,12.21
2018-12-02T13:10:33.142Z,12.25
2018-12-02T13:13:02.422Z,12.27
2018-12-02T13:15:31.680Z,12.27
2018-12-02T13:18:00.776Z,12.28
2018-12-02T13:20:30.321Z,12.30
2018-12-02T13:23:00.085Z,12.32
2018-12-02T13:25:29.168Z,12.36
2018-12-02T13:27:58.096Z,12.40
2018-12-02T13:30:27.120Z,12.42
2018-12-02T13:32:56.050Z,12.45
2018-12-02T13:35:25.205Z,12.48
2018-12-02T13:37:55.097Z,12.51
2018-12-02T13:40:25.810Z,12.57
2018-12-02T13:42:55.023Z,12.59
2018-12-02T13:45:24.249Z,12.64
2018-12-02T13:47:53.182Z,12.67
2018-12-02T13:50:23.543Z,12.71
2018-12-02T13:52:53.102Z,12.76
2018-12-02T13:55:23.259Z,12.81
2018-12-02T13:57:52.528Z,12.86
2018-12-02T14:00:23.444Z,12.88
2018-12-02T14:02:52.712Z,12.91
2018-12-02T14:05:23.637Z,12.93
2018-12-02T14:07:52.916Z,12.96
2018-12-02T14:10:23.580Z,12.98
2018-12-02T14:12:52.511Z,13.02
2018-12-02T14:15:21.672Z,13.05
2018-12-02T14:17:50.992Z,13.07
2018-12-02T14:20:20.311Z,13.11
2018-12-02T14:22:49.576Z,13.13
2018-12-02T14:25:18.857Z,13.14
2018-12-02T14:27:48.386Z,13.13
2018-12-02T14:30:17.327Z,13.19
2018-12-02T14:32:46.365Z,13.23
2018-12-02T14:35:15.783Z,13.27
2018-12-02T14:37:45.308Z,13.28
2018-12-02T14:40:14.403Z,13.32
2018-12-02T14:42:43.337Z,13.35
2018-12-02T14:45:12.276Z,13.37
2018-12-02T14:47:41.663Z,13.38
2018-12-02T14:50:10.866Z,13.42
2018-12-02T14:52:39.909Z,13.46
2018-12-02T14:55:08.908Z,13.49
2018-12-02T14:57:38.471Z,13.52
2018-12-02T15:00:06.939Z,13.57
2018-12-02T15:02:36.374Z,13.59
2018-12-02T15:05:05.070Z,13.62
2018-12-02T15:07:34.526Z,13.64
2018-12-02T15:10:03.212Z,13.64
2018-12-02T15:12:32.776Z,13.64
2018-12-02T15:15:02.329Z,13.67
2018-12-02T15:17:31.692Z,13.68
2018-12-02T15:20:01.012Z,13.69
2018-12-02T15:22:30.329Z,13.71
2018-12-02T15:24:59.575Z,13.71
2018-12-02T15:27:28.860Z,13.74
2018-12-02T15:29:58.444Z,13.73
2018-12-02T15:32:27.919Z,13.75
2018-12-02T15:34:57.451Z,13.80
2018-12-02T15:37:27.191Z,13.84
2018-12-02T15:39:56.665Z,13.84
2018-12-02T15:42:25.716Z,13.83
2018-12-02T15:44:54.704Z,13.85
2018-12-02T15:47:24.440Z,13.84
2018-12-02T15:49:53.709Z,13.83
2018-12-02T15:52:23.870Z,13.82
2018-12-02T15:54:53.135Z,13.81
2018-12-02T15:57:22.632Z,13.81
2018-12-02T15:59:51.920Z,13.81
2018-12-02T16:02:21.701Z,13.82
2018-12-02T16:04:50.984Z,13.82
2018-12-02T16:07:20.282Z,13.80
2018-12-02T16:09:49.673Z,13.81
2018-12-02T16:12:18.972Z,13.81
2018-12-02T16:14:51.720Z,13.81
2018-12-02T16:17:17.809Z,13.81
2018-12-02T16:19:46.745Z,13.82
2018-12-02T16:22:16.023Z,13.81
2018-12-02T16:24:45.568Z,13.81
2018-12-02T16:27:14.847Z,13.77
2018-12-02T16:29:44.104Z,13.70
2018-12-02T16:32:13.652Z,13.64
2018-12-02T16:34:42.929Z,13.61
2018-12-02T16:37:12.237Z,13.59
2018-12-02T16:39:41.793Z,13.59
2018-12-02T16:42:11.067Z,13.58
2018-12-02T16:44:40.676Z,13.56
2018-12-02T16:47:09.973Z,13.57
2018-12-02T16:49:39.236Z,13.56
2018-12-02T16:52:08.828Z,13.59
2018-12-02T16:54:38.099Z,13.57
2018-12-02T16:57:07.372Z,13.56
2018-12-02T16:59:36.936Z,13.55
2018-12-02T17:02:05.882Z,13.57
2018-12-02T17:04:35.436Z,13.56
2018-12-02T17:07:04.272Z,13.58
2018-12-02T17:09:34.551Z,13.60
2018-12-02T17:12:04.232Z,13.61
2018-12-02T17:14:38.718Z,13.61
2018-12-02T17:17:03.240Z,13.65
2018-12-02T17:19:32.788Z,13.68
2018-12-02T17:22:02.104Z,13.70
2018-12-02T17:24:31.292Z,13.74
2018-12-02T17:27:00.756Z,13.73
2018-12-02T17:29:31.489Z,13.72
2018-12-02T17:32:00.646Z,13.71
2018-12-02T17:34:30.058Z,13.69
2018-12-02T17:37:00.275Z,13.68
2018-12-02T17:39:29.899Z,13.63
2018-12-02T17:42:03.157Z,13.59
2018-12-02T17:44:33.275Z,13.57
2018-12-02T17:47:02.792Z,13.53
2018-12-02T17:49:32.344Z,13.55
2018-12-02T17:52:02.851Z,13.56
2018-12-02T17:54:32.415Z,13.55
2018-12-02T17:57:01.948Z,13.56
2018-12-02T17:59:31.349Z,13.58
2018-12-02T18:02:00.864Z,13.55
2018-12-02T18:04:30.136Z,13.54
2018-12-02T18:06:59.392Z,13.52
2018-12-02T18:09:29.331Z,13.50
2018-12-02T18:11:59.060Z,13.52
2018-12-02T18:14:28.825Z,13.53
2018-12-02T18:16:58.089Z,13.54
2018-12-02T18:19:27.403Z,13.55
2018-12-02T18:21:56.972Z,13.54
2018-12-02T18:24:26.300Z,13.57
2018-12-02T18:26:55.845Z,13.60
2018-12-02T18:29:25.167Z,13.61
2018-12-02T18:31:54.416Z,13.65
2018-12-02T18:34:24.388Z,13.63
2018-12-02T18:36:53.359Z,13.65
2018-12-02T18:39:24.901Z,13.65
2018-12-02T18:41:54.148Z,13.65
2018-12-02T18:44:24.376Z,13.67
2018-12-02T18:46:53.579Z,13.70
2018-12-02T18:49:24.309Z,13.72
2018-12-02T18:51:53.560Z,13.72
2018-12-02T18:54:24.044Z,13.73
2018-12-02T18:56:53.316Z,13.71
2018-12-02T18:59:22.712Z,13.72
2018-12-02T19:01:51.964Z,13.73
2018-12-02T19:04:21.229Z,13.73
2018-12-02T19:06:50.144Z,13.74
2018-12-02T19:09:19.092Z,13.67
2018-12-02T19:11:48.334Z,13.70
2018-12-02T19:14:17.600Z,13.70
2018-12-02T19:16:46.972Z,13.70
2018-12-02T19:19:15.921Z,13.68
2018-12-02T19:21:45.166Z,13.67
2018-12-02T19:24:14.220Z,13.67
2018-12-02T19:26:43.473Z,13.64
2018-12-02T19:29:13.100Z,13.62
2018-12-02T19:31:42.311Z,13.58
2018-12-02T19:34:11.565Z,13.57
2018-12-02T19:36:40.581Z,13.56
2018-12-02T19:39:09.589Z,13.54
2018-12-02T19:41:38.730Z,13.55
2018-12-02T19:44:08.234Z,13.53
2018-12-02T19:46:37.443Z,13.53
2018-12-02T19:49:06.412Z,13.51
2018-12-02T19:51:35.963Z,13.52
2018-12-02T19:54:05.159Z,13.53
2018-12-02T19:56:34.186Z,13.54
2018-12-02T19:59:03.102Z,13.53
2018-12-02T20:01:32.451Z,13.56
2018-12-02T20:04:01.756Z,13.53
2018-12-02T20:06:31.003Z,13.54
2018-12-02T20:09:00.500Z,13.51
2018-12-02T20:11:30.000Z,13.50
2018-12-02T20:13:59.437Z,13.49
2018-12-02T20:16:28.681Z,13.50
2018-12-02T20:18:57.950Z,13.49
2018-12-02T20:21:27.277Z,13.48
2018-12-02T20:23:56.293Z,13.50
2018-12-02T20:26:25.749Z,13.52
2018-12-02T20:28:54.687Z,13.54
2018-12-02T20:31:24.270Z,13.55
2018-12-02T20:33:53.534Z,13.54
2018-12-02T20:36:22.787Z,13.55
2018-12-02T20:38:52.343Z,13.56
2018-12-02T20:41:21.640Z,13.58
2018-12-02T20:43:50.882Z,13.57
2018-12-02T20:46:20.439Z,13.56
2018-12-02T20:48:49.689Z,13.59
2018-12-02T20:51:25.196Z,13.60
2018-12-02T20:53:54.492Z,13.61
2018-12-02T20:56:25.165Z,13.62
2018-12-02T20:58:54.603Z,13.62
2018-12-02T21:01:24.895Z,13.62
2018-12-02T21:06:34.023Z,13.64
2018-12-02T21:09:03.293Z,13.67
2018-12-02T21:11:32.562Z,13.66
2018-12-02T21:14:01.818Z,13.70
2018-12-02T21:16:31.079Z,13.72
2018-12-02T21:19:00.604Z,13.72
2018-12-02T21:21:30.151Z,13.72
2018-12-02T21:23:59.732Z,13.72
2018-12-02T21:26:29.013Z,13.73
2018-12-02T21:28:58.552Z,13.71
2018-12-02T21:31:28.109Z,13.72
2018-12-02T21:33:58.406Z,13.74
2018-12-02T21:36:27.908Z,13.73
2018-12-02T21:38:57.160Z,13.72
2018-12-02T21:41:26.715Z,13.73
2018-12-02T21:43:55.962Z,13.72
2018-12-02T21:46:25.233Z,13.72
2018-12-02T21:48:54.654Z,13.73
2018-12-02T21:51:25.044Z,13.70
2018-12-02T21:53:54.641Z,13.68
2018-12-02T21:56:25.053Z,13.69
2018-12-02T21:58:54.628Z,13.73
2018-12-02T22:01:25.024Z,13.73
2018-12-02T22:03:54.578Z,13.73
2018-12-02T22:06:24.703Z,13.72
2018-12-02T22:08:53.956Z,13.71
2018-12-02T22:11:23.219Z,13.72
2018-12-02T22:13:52.675Z,13.74
2018-12-02T22:16:21.941Z,13.75
2018-12-02T22:18:51.189Z,13.75
2018-12-02T22:21:21.880Z,13.74
2018-12-02T22:23:51.344Z,13.76
2018-12-02T22:26:20.331Z,13.75
2018-12-02T22:28:49.475Z,13.73
2018-12-02T22:31:18.824Z,13.74
2018-12-02T22:33:48.074Z,13.76
2018-12-02T22:36:17.344Z,13.75
2018-12-02T22:38:46.818Z,13.76
2018-12-02T22:41:16.991Z,13.75
2018-12-02T22:43:45.915Z,13.76
2018-12-02T22:46:15.225Z,13.73
2018-12-02T22:48:44.738Z,13.72
2018-12-02T22:51:13.693Z,13.71
2018-12-02T22:53:43.191Z,13.74
2018-12-02T22:56:12.521Z,13.75
2018-12-02T22:58:42.063Z,13.75
2018-12-02T23:04:10.540Z,13.72
2018-12-02T23:06:40.291Z,13.72
2018-12-02T23:09:08.719Z,13.71
2018-12-02T23:11:38.167Z,13.74
2018-12-02T23:14:07.096Z,13.75
2018-12-02T23:16:36.406Z,13.78
2018-12-02T23:19:05.517Z,13.79
2018-12-02T23:21:35.113Z,13.78
2018-12-02T23:24:04.146Z,13.79
2018-12-02T23:26:33.873Z,13.79
2018-12-02T23:29:08.354Z,13.80
2018-12-02T23:31:32.973Z,13.80
2018-12-02T23:34:01.909Z,13.79
2018-12-02T23:36:31.173Z,13.78
2018-12-02T23:39:00.462Z,13.77
2018-12-02T23:41:29.505Z,13.76
2018-12-02T23:43:59.390Z,13.74
2018-12-02T23:46:29.235Z,13.75
2018-12-02T23:48:58.836Z,13.77
2018-12-02T23:51:28.348Z,13.76
2018-12-02T23:53:57.606Z,13.79
2018-12-02T23:56:26.889Z,13.77
2018-12-02T23:58:56.174Z,13.78
